sensor_id;sensor_type;location;lat;lon;timestamp;P1;durP1;ratioP1;P2;durP2;ratioP2
38332;SDS011;25748;46.670;14.272;2023-03-20T00:01:43;5.82;;;2.83;;
38332;SDS011;25748;46.670;14.272;2023-03-20T00:04:09;6.68;;;3.00;;
38332;SDS011;25748;46.670;14.272;2023-03-20T00:06:36;6.10;;;3.08;;
38332;SDS011;25748;46.670;14.272;2023-03-20T00:09:02;6.47;;;2.90;;
38332;SDS011;25748;46.670;14.272;2023-03-20T00:13:55;7.22;;;3.22;;
38332;SDS011;25748;46.670;14.272;2023-03-20T00:16:26;3.80;;;2.58;;
38332;SDS011;25748;46.670;14.272;2023-03-20T00:18:55;13.27;;;3.83;;
38332;SDS011;25748;46.670;14.272;2023-03-20T00:21:21;6.22;;;3.03;;
38332;SDS011;25748;46.670;14.272;2023-03-20T00:23:47;9.50;;;3.35;;
38332;SDS011;25748;46.670;14.272;2023-03-20T00:26:14;8.82;;;3.03;;
38332;SDS011;25748;46.670;14.272;2023-03-20T00:28:43;9.15;;;2.92;;
38332;SDS011;25748;46.670;14.272;2023-03-20T00:33:55;8.00;;;2.75;;
38332;SDS011;25748;46.670;14.272;2023-03-20T00:36:22;12.45;;;3.13;;
38332;SDS011;25748;46.670;14.272;2023-03-20T00:38:48;6.45;;;2.67;;
38332;SDS011;25748;46.670;14.272;2023-03-20T00:43:59;7.75;;;3.15;;
38332;SDS011;25748;46.670;14.272;2023-03-20T00:46:27;7.70;;;3.15;;
38332;SDS011;25748;46.670;14.272;2023-03-20T00:49:02;5.97;;;2.92;;
38332;SDS011;25748;46.670;14.272;2023-03-20T00:51:28;9.68;;;3.33;;
38332;SDS011;25748;46.670;14.272;2023-03-20T00:53:53;5.53;;;2.28;;
38332;SDS011;25748;46.670;14.272;2023-03-20T00:56:32;6.25;;;2.85;;
38332;SDS011;25748;46.670;14.272;2023-03-20T00:59:01;6.93;;;2.65;;
38332;SDS011;25748;46.670;14.272;2023-03-20T01:01:28;9.70;;;2.50;;
38332;SDS011;25748;46.670;14.272;2023-03-20T01:03:55;6.18;;;2.40;;
38332;SDS011;25748;46.670;14.272;2023-03-20T01:06:21;4.97;;;2.28;;
38332;SDS011;25748;46.670;14.272;2023-03-20T01:08:47;6.28;;;3.10;;
38332;SDS011;25748;46.670;14.272;2023-03-20T01:11:13;7.20;;;2.83;;
38332;SDS011;25748;46.670;14.272;2023-03-20T01:13:41;6.80;;;2.78;;
38332;SDS011;25748;46.670;14.272;2023-03-20T01:16:21;7.50;;;2.83;;
38332;SDS011;25748;46.670;14.272;2023-03-20T01:18:48;6.13;;;2.45;;
38332;SDS011;25748;46.670;14.272;2023-03-20T01:21:14;7.70;;;2.47;;
38332;SDS011;25748;46.670;14.272;2023-03-20T01:23:41;7.15;;;2.20;;
38332;SDS011;25748;46.670;14.272;2023-03-20T01:28:59;3.72;;;1.95;;
38332;SDS011;25748;46.670;14.272;2023-03-20T01:31:25;8.48;;;1.95;;
38332;SDS011;25748;46.670;14.272;2023-03-20T01:33:51;5.65;;;2.08;;
38332;SDS011;25748;46.670;14.272;2023-03-20T01:36:18;5.45;;;2.38;;
38332;SDS011;25748;46.670;14.272;2023-03-20T01:38:46;8.82;;;2.20;;
38332;SDS011;25748;46.670;14.272;2023-03-20T01:41:17;5.78;;;2.10;;
38332;SDS011;25748;46.670;14.272;2023-03-20T01:43:44;2.67;;;1.80;;
38332;SDS011;25748;46.670;14.272;2023-03-20T01:51:14;4.97;;;1.88;;
38332;SDS011;25748;46.670;14.272;2023-03-20T01:53:44;5.78;;;2.40;;
38332;SDS011;25748;46.670;14.272;2023-03-20T01:56:13;4.28;;;2.47;;
38332;SDS011;25748;46.670;14.272;2023-03-20T01:58:43;3.03;;;1.85;;
38332;SDS011;25748;46.670;14.272;2023-03-20T02:01:13;4.78;;;2.10;;
38332;SDS011;25748;46.670;14.272;2023-03-20T02:03:42;5.22;;;2.33;;
38332;SDS011;25748;46.670;14.272;2023-03-20T02:06:12;3.47;;;1.70;;
38332;SDS011;25748;46.670;14.272;2023-03-20T02:08:41;4.40;;;1.88;;
38332;SDS011;25748;46.670;14.272;2023-03-20T02:11:11;7.20;;;2.50;;
38332;SDS011;25748;46.670;14.272;2023-03-20T02:13:37;4.70;;;2.30;;
38332;SDS011;25748;46.670;14.272;2023-03-20T02:16:13;4.40;;;2.50;;
38332;SDS011;25748;46.670;14.272;2023-03-20T02:18:42;4.00;;;1.90;;
38332;SDS011;25748;46.670;14.272;2023-03-20T02:26:45;7.22;;;2.90;;
38332;SDS011;25748;46.670;14.272;2023-03-20T02:32:23;3.05;;;1.98;;
38332;SDS011;25748;46.670;14.272;2023-03-20T02:43:31;9.65;;;2.28;;
38332;SDS011;25748;46.670;14.272;2023-03-20T02:48:56;5.32;;;2.13;;
38332;SDS011;25748;46.670;14.272;2023-03-20T02:54:44;10.52;;;2.25;;
38332;SDS011;25748;46.670;14.272;2023-03-20T02:59:49;5.28;;;2.03;;
38332;SDS011;25748;46.670;14.272;2023-03-20T03:02:31;6.05;;;2.58;;
38332;SDS011;25748;46.670;14.272;2023-03-20T03:05:01;5.75;;;1.90;;
38332;SDS011;25748;46.670;14.272;2023-03-20T03:07:31;11.57;;;2.80;;
38332;SDS011;25748;46.670;14.272;2023-03-20T03:10:01;3.83;;;2.40;;
38332;SDS011;25748;46.670;14.272;2023-03-20T03:12:34;5.43;;;2.00;;
38332;SDS011;25748;46.670;14.272;2023-03-20T03:15:04;5.57;;;2.92;;
38332;SDS011;25748;46.670;14.272;2023-03-20T03:17:34;4.80;;;2.17;;
38332;SDS011;25748;46.670;14.272;2023-03-20T03:20:07;4.45;;;2.70;;
38332;SDS011;25748;46.670;14.272;2023-03-20T03:22:43;3.92;;;2.05;;
38332;SDS011;25748;46.670;14.272;2023-03-20T03:25:09;6.78;;;2.38;;
38332;SDS011;25748;46.670;14.272;2023-03-20T03:27:37;5.68;;;2.40;;
38332;SDS011;25748;46.670;14.272;2023-03-20T03:30:11;4.45;;;2.42;;
38332;SDS011;25748;46.670;14.272;2023-03-20T03:32:43;4.65;;;2.28;;
38332;SDS011;25748;46.670;14.272;2023-03-20T03:37:57;5.63;;;2.30;;
38332;SDS011;25748;46.670;14.272;2023-03-20T03:43:17;4.45;;;2.10;;
38332;SDS011;25748;46.670;14.272;2023-03-20T03:45:52;5.63;;;2.83;;
38332;SDS011;25748;46.670;14.272;2023-03-20T03:48:25;4.10;;;1.90;;
38332;SDS011;25748;46.670;14.272;2023-03-20T03:50:59;5.40;;;1.90;;
38332;SDS011;25748;46.670;14.272;2023-03-20T03:53:33;3.65;;;1.52;;
38332;SDS011;25748;46.670;14.272;2023-03-20T03:56:04;8.13;;;2.90;;
38332;SDS011;25748;46.670;14.272;2023-03-20T03:58:41;5.82;;;2.15;;
38332;SDS011;25748;46.670;14.272;2023-03-20T04:01:10;6.63;;;2.67;;
38332;SDS011;25748;46.670;14.272;2023-03-20T04:03:39;2.58;;;1.90;;
38332;SDS011;25748;46.670;14.272;2023-03-20T04:06:25;6.93;;;2.22;;
38332;SDS011;25748;46.670;14.272;2023-03-20T04:08:52;8.00;;;2.90;;
38332;SDS011;25748;46.670;14.272;2023-03-20T04:11:18;3.95;;;2.08;;
38332;SDS011;25748;46.670;14.272;2023-03-20T04:13:49;6.22;;;1.98;;
38332;SDS011;25748;46.670;14.272;2023-03-20T04:16:16;6.03;;;2.38;;
38332;SDS011;25748;46.670;14.272;2023-03-20T04:18:43;7.97;;;2.10;;
38332;SDS011;25748;46.670;14.272;2023-03-20T04:21:09;4.68;;;2.03;;
38332;SDS011;25748;46.670;14.272;2023-03-20T04:23:35;4.28;;;2.53;;
38332;SDS011;25748;46.670;14.272;2023-03-20T04:26:01;6.38;;;2.05;;
38332;SDS011;25748;46.670;14.272;2023-03-20T04:28:27;5.60;;;2.22;;
38332;SDS011;25748;46.670;14.272;2023-03-20T04:30:54;10.13;;;2.70;;
38332;SDS011;25748;46.670;14.272;2023-03-20T04:33:21;3.63;;;1.92;;
38332;SDS011;25748;46.670;14.272;2023-03-20T04:35:47;5.43;;;2.10;;
38332;SDS011;25748;46.670;14.272;2023-03-20T04:38:13;3.08;;;2.10;;
38332;SDS011;25748;46.670;14.272;2023-03-20T04:40:39;6.80;;;2.47;;
38332;SDS011;25748;46.670;14.272;2023-03-20T04:43:05;4.95;;;2.20;;
38332;SDS011;25748;46.670;14.272;2023-03-20T04:45:31;4.43;;;1.98;;
38332;SDS011;25748;46.670;14.272;2023-03-20T04:47:56;5.75;;;1.92;;
38332;SDS011;25748;46.670;14.272;2023-03-20T04:50:22;4.93;;;2.30;;
38332;SDS011;25748;46.670;14.272;2023-03-20T04:52:48;3.22;;;1.90;;
38332;SDS011;25748;46.670;14.272;2023-03-20T04:55:13;3.30;;;2.13;;
38332;SDS011;25748;46.670;14.272;2023-03-20T04:57:40;8.07;;;2.17;;
38332;SDS011;25748;46.670;14.272;2023-03-20T05:00:06;7.97;;;2.20;;
38332;SDS011;25748;46.670;14.272;2023-03-20T05:02:32;7.88;;;2.35;;
38332;SDS011;25748;46.670;14.272;2023-03-20T05:04:57;4.38;;;2.13;;
38332;SDS011;25748;46.670;14.272;2023-03-20T05:07:24;7.68;;;2.58;;
38332;SDS011;25748;46.670;14.272;2023-03-20T05:09:50;7.57;;;2.50;;
38332;SDS011;25748;46.670;14.272;2023-03-20T05:12:16;4.35;;;1.70;;
38332;SDS011;25748;46.670;14.272;2023-03-20T05:14:41;7.10;;;2.58;;
38332;SDS011;25748;46.670;14.272;2023-03-20T05:17:07;10.43;;;2.42;;
38332;SDS011;25748;46.670;14.272;2023-03-20T05:19:33;6.32;;;2.38;;
38332;SDS011;25748;46.670;14.272;2023-03-20T05:21:59;4.63;;;2.40;;
38332;SDS011;25748;46.670;14.272;2023-03-20T05:24:25;7.25;;;2.03;;
38332;SDS011;25748;46.670;14.272;2023-03-20T05:26:53;12.93;;;2.83;;
38332;SDS011;25748;46.670;14.272;2023-03-20T05:29:18;5.80;;;3.38;;
38332;SDS011;25748;46.670;14.272;2023-03-20T05:31:44;6.28;;;2.63;;
38332;SDS011;25748;46.670;14.272;2023-03-20T05:34:11;17.35;;;2.70;;
38332;SDS011;25748;46.670;14.272;2023-03-20T05:36:37;7.00;;;3.13;;
38332;SDS011;25748;46.670;14.272;2023-03-20T05:39:03;3.95;;;2.58;;
38332;SDS011;25748;46.670;14.272;2023-03-20T05:41:29;5.95;;;2.05;;
38332;SDS011;25748;46.670;14.272;2023-03-20T05:43:55;11.40;;;3.50;;
38332;SDS011;25748;46.670;14.272;2023-03-20T05:46:21;6.45;;;3.33;;
38332;SDS011;25748;46.670;14.272;2023-03-20T05:48:47;20.35;;;3.25;;
38332;SDS011;25748;46.670;14.272;2023-03-20T05:51:13;4.78;;;2.83;;
38332;SDS011;25748;46.670;14.272;2023-03-20T05:53:38;13.15;;;2.78;;
38332;SDS011;25748;46.670;14.272;2023-03-20T05:56:04;8.48;;;2.55;;
38332;SDS011;25748;46.670;14.272;2023-03-20T05:58:31;3.38;;;1.60;;
38332;SDS011;25748;46.670;14.272;2023-03-20T06:00:57;5.68;;;1.80;;
38332;SDS011;25748;46.670;14.272;2023-03-20T06:03:22;7.75;;;2.70;;
38332;SDS011;25748;46.670;14.272;2023-03-20T06:05:48;5.88;;;2.85;;
38332;SDS011;25748;46.670;14.272;2023-03-20T06:08:14;4.10;;;2.20;;
38332;SDS011;25748;46.670;14.272;2023-03-20T06:10:39;5.45;;;2.28;;
38332;SDS011;25748;46.670;14.272;2023-03-20T06:13:06;4.97;;;2.33;;
38332;SDS011;25748;46.670;14.272;2023-03-20T06:15:31;8.70;;;3.22;;
38332;SDS011;25748;46.670;14.272;2023-03-20T06:17:57;8.00;;;2.60;;
38332;SDS011;25748;46.670;14.272;2023-03-20T06:20:23;9.13;;;2.85;;
38332;SDS011;25748;46.670;14.272;2023-03-20T06:22:49;6.22;;;2.45;;
38332;SDS011;25748;46.670;14.272;2023-03-20T06:25:15;6.70;;;2.40;;
38332;SDS011;25748;46.670;14.272;2023-03-20T06:27:42;4.18;;;2.03;;
38332;SDS011;25748;46.670;14.272;2023-03-20T06:30:08;3.75;;;2.00;;
38332;SDS011;25748;46.670;14.272;2023-03-20T06:32:34;11.75;;;6.10;;
38332;SDS011;25748;46.670;14.272;2023-03-20T06:35:00;8.20;;;4.15;;
38332;SDS011;25748;46.670;14.272;2023-03-20T06:37:25;13.73;;;4.50;;
38332;SDS011;25748;46.670;14.272;2023-03-20T06:39:51;6.75;;;2.88;;
38332;SDS011;25748;46.670;14.272;2023-03-20T06:42:17;11.00;;;3.28;;
38332;SDS011;25748;46.670;14.272;2023-03-20T06:44:42;8.30;;;3.10;;
38332;SDS011;25748;46.670;14.272;2023-03-20T06:47:08;4.53;;;2.45;;
38332;SDS011;25748;46.670;14.272;2023-03-20T06:49:34;4.88;;;2.55;;
38332;SDS011;25748;46.670;14.272;2023-03-20T06:52:00;4.05;;;2.00;;
38332;SDS011;25748;46.670;14.272;2023-03-20T06:54:26;7.78;;;2.35;;
38332;SDS011;25748;46.670;14.272;2023-03-20T06:56:52;5.63;;;2.30;;
38332;SDS011;25748;46.670;14.272;2023-03-20T06:59:18;9.35;;;2.50;;
38332;SDS011;25748;46.670;14.272;2023-03-20T07:01:43;14.40;;;3.42;;
38332;SDS011;25748;46.670;14.272;2023-03-20T07:04:09;7.55;;;3.80;;
38332;SDS011;25748;46.670;14.272;2023-03-20T07:06:35;8.63;;;3.03;;
38332;SDS011;25748;46.670;14.272;2023-03-20T07:09:00;9.52;;;3.95;;
38332;SDS011;25748;46.670;14.272;2023-03-20T07:11:27;6.50;;;3.53;;
38332;SDS011;25748;46.670;14.272;2023-03-20T07:13:53;11.60;;;3.67;;
38332;SDS011;25748;46.670;14.272;2023-03-20T07:16:18;6.40;;;3.05;;
38332;SDS011;25748;46.670;14.272;2023-03-20T07:18:44;11.75;;;3.83;;
38332;SDS011;25748;46.670;14.272;2023-03-20T07:21:10;5.38;;;3.15;;
38332;SDS011;25748;46.670;14.272;2023-03-20T07:23:42;6.30;;;2.33;;
38332;SDS011;25748;46.670;14.272;2023-03-20T07:26:08;8.95;;;2.63;;
38332;SDS011;25748;46.670;14.272;2023-03-20T07:28:34;6.38;;;2.17;;
38332;SDS011;25748;46.670;14.272;2023-03-20T07:30:59;5.57;;;2.65;;
38332;SDS011;25748;46.670;14.272;2023-03-20T07:33:25;3.42;;;1.90;;
38332;SDS011;25748;46.670;14.272;2023-03-20T07:35:54;3.42;;;2.20;;
38332;SDS011;25748;46.670;14.272;2023-03-20T07:38:20;6.80;;;2.83;;
38332;SDS011;25748;46.670;14.272;2023-03-20T07:40:46;4.47;;;2.28;;
38332;SDS011;25748;46.670;14.272;2023-03-20T07:43:13;6.57;;;2.92;;
38332;SDS011;25748;46.670;14.272;2023-03-20T07:45:39;7.50;;;2.63;;
38332;SDS011;25748;46.670;14.272;2023-03-20T07:48:05;5.00;;;2.88;;
38332;SDS011;25748;46.670;14.272;2023-03-20T07:50:31;7.72;;;2.28;;
38332;SDS011;25748;46.670;14.272;2023-03-20T07:52:57;9.95;;;2.72;;
38332;SDS011;25748;46.670;14.272;2023-03-20T07:55:23;8.43;;;5.22;;
38332;SDS011;25748;46.670;14.272;2023-03-20T07:57:48;7.85;;;3.38;;
38332;SDS011;25748;46.670;14.272;2023-03-20T08:00:15;11.00;;;2.67;;
38332;SDS011;25748;46.670;14.272;2023-03-20T08:02:41;8.23;;;2.40;;
38332;SDS011;25748;46.670;14.272;2023-03-20T08:05:07;9.38;;;2.83;;
38332;SDS011;25748;46.670;14.272;2023-03-20T08:07:33;8.57;;;3.45;;
38332;SDS011;25748;46.670;14.272;2023-03-20T08:09:59;6.95;;;3.53;;
38332;SDS011;25748;46.670;14.272;2023-03-20T08:12:25;8.63;;;3.05;;
38332;SDS011;25748;46.670;14.272;2023-03-20T08:14:51;9.75;;;3.92;;
38332;SDS011;25748;46.670;14.272;2023-03-20T08:17:16;7.55;;;3.67;;
38332;SDS011;25748;46.670;14.272;2023-03-20T08:19:42;6.95;;;3.08;;
38332;SDS011;25748;46.670;14.272;2023-03-20T08:22:08;8.82;;;3.30;;
38332;SDS011;25748;46.670;14.272;2023-03-20T08:24:34;8.40;;;3.58;;
38332;SDS011;25748;46.670;14.272;2023-03-20T08:27:00;10.88;;;3.63;;
38332;SDS011;25748;46.670;14.272;2023-03-20T08:29:25;8.90;;;3.67;;
38332;SDS011;25748;46.670;14.272;2023-03-20T08:31:51;7.35;;;3.35;;
38332;SDS011;25748;46.670;14.272;2023-03-20T08:34:17;11.32;;;3.53;;
38332;SDS011;25748;46.670;14.272;2023-03-20T08:36:42;8.35;;;3.22;;
38332;SDS011;25748;46.670;14.272;2023-03-20T08:39:08;10.02;;;3.45;;
38332;SDS011;25748;46.670;14.272;2023-03-20T08:41:35;7.43;;;2.45;;
38332;SDS011;25748;46.670;14.272;2023-03-20T08:44:03;5.80;;;2.88;;
38332;SDS011;25748;46.670;14.272;2023-03-20T08:46:30;7.38;;;3.40;;
38332;SDS011;25748;46.670;14.272;2023-03-20T08:48:56;7.35;;;3.20;;
38332;SDS011;25748;46.670;14.272;2023-03-20T08:51:23;7.57;;;3.63;;
38332;SDS011;25748;46.670;14.272;2023-03-20T08:53:49;7.45;;;3.28;;
38332;SDS011;25748;46.670;14.272;2023-03-20T08:56:15;5.53;;;3.03;;
38332;SDS011;25748;46.670;14.272;2023-03-20T08:58:40;8.15;;;3.40;;
38332;SDS011;25748;46.670;14.272;2023-03-20T09:01:07;6.20;;;2.67;;
38332;SDS011;25748;46.670;14.272;2023-03-20T09:03:34;6.28;;;2.92;;
38332;SDS011;25748;46.670;14.272;2023-03-20T09:06:00;10.35;;;3.53;;
38332;SDS011;25748;46.670;14.272;2023-03-20T09:08:28;7.97;;;3.28;;
38332;SDS011;25748;46.670;14.272;2023-03-20T09:10:55;6.80;;;2.80;;
38332;SDS011;25748;46.670;14.272;2023-03-20T09:13:20;6.68;;;3.03;;
38332;SDS011;25748;46.670;14.272;2023-03-20T09:15:46;9.57;;;2.92;;
38332;SDS011;25748;46.670;14.272;2023-03-20T09:18:12;6.72;;;3.22;;
38332;SDS011;25748;46.670;14.272;2023-03-20T09:20:38;7.50;;;2.22;;
38332;SDS011;25748;46.670;14.272;2023-03-20T09:23:04;6.65;;;2.65;;
38332;SDS011;25748;46.670;14.272;2023-03-20T09:25:29;5.70;;;3.10;;
38332;SDS011;25748;46.670;14.272;2023-03-20T09:27:55;8.75;;;3.05;;
38332;SDS011;25748;46.670;14.272;2023-03-20T09:30:21;13.25;;;2.75;;
38332;SDS011;25748;46.670;14.272;2023-03-20T09:32:48;6.40;;;2.95;;
38332;SDS011;25748;46.670;14.272;2023-03-20T09:35:14;7.43;;;3.00;;
38332;SDS011;25748;46.670;14.272;2023-03-20T09:37:40;6.60;;;3.03;;
38332;SDS011;25748;46.670;14.272;2023-03-20T09:40:06;8.23;;;3.40;;
38332;SDS011;25748;46.670;14.272;2023-03-20T09:48:22;5.57;;;2.80;;
38332;SDS011;25748;46.670;14.272;2023-03-20T09:50:58;7.45;;;2.75;;
38332;SDS011;25748;46.670;14.272;2023-03-20T09:56:46;6.85;;;2.90;;
38332;SDS011;25748;46.670;14.272;2023-03-20T09:59:14;5.78;;;2.40;;
38332;SDS011;25748;46.670;14.272;2023-03-20T10:01:55;13.88;;;3.35;;
38332;SDS011;25748;46.670;14.272;2023-03-20T10:04:32;5.63;;;2.55;;
38332;SDS011;25748;46.670;14.272;2023-03-20T10:06:58;6.57;;;2.47;;
38332;SDS011;25748;46.670;14.272;2023-03-20T10:09:27;5.32;;;2.97;;
38332;SDS011;25748;46.670;14.272;2023-03-20T10:20:11;7.32;;;2.60;;
38332;SDS011;25748;46.670;14.272;2023-03-20T10:22:45;6.78;;;2.90;;
38332;SDS011;25748;46.670;14.272;2023-03-20T10:25:31;10.32;;;2.72;;
38332;SDS011;25748;46.670;14.272;2023-03-20T10:28:18;6.75;;;2.60;;
38332;SDS011;25748;46.670;14.272;2023-03-20T10:39:50;3.63;;;2.33;;
38332;SDS011;25748;46.670;14.272;2023-03-20T10:42:32;6.05;;;2.65;;
38332;SDS011;25748;46.670;14.272;2023-03-20T10:45:06;6.37;;;2.70;;
38332;SDS011;25748;46.670;14.272;2023-03-20T10:47:51;6.68;;;2.75;;
38332;SDS011;25748;46.670;14.272;2023-03-20T10:50:22;9.77;;;2.78;;
38332;SDS011;25748;46.670;14.272;2023-03-20T10:52:59;6.72;;;1.88;;
38332;SDS011;25748;46.670;14.272;2023-03-20T10:55:28;4.28;;;2.80;;
38332;SDS011;25748;46.670;14.272;2023-03-20T10:58:01;5.13;;;2.40;;
38332;SDS011;25748;46.670;14.272;2023-03-20T11:00:48;6.43;;;2.45;;
38332;SDS011;25748;46.670;14.272;2023-03-20T11:03:25;5.93;;;2.13;;
38332;SDS011;25748;46.670;14.272;2023-03-20T11:05:55;5.75;;;1.92;;
38332;SDS011;25748;46.670;14.272;2023-03-20T11:08:49;6.63;;;2.35;;
38332;SDS011;25748;46.670;14.272;2023-03-20T11:11:21;5.72;;;2.28;;
38332;SDS011;25748;46.670;14.272;2023-03-20T11:13:52;4.85;;;2.53;;
38332;SDS011;25748;46.670;14.272;2023-03-20T11:16:39;6.40;;;2.47;;
38332;SDS011;25748;46.670;14.272;2023-03-20T11:19:06;6.13;;;2.67;;
38332;SDS011;25748;46.670;14.272;2023-03-20T11:21:32;9.10;;;2.75;;
38332;SDS011;25748;46.670;14.272;2023-03-20T11:24:18;4.80;;;2.28;;
38332;SDS011;25748;46.670;14.272;2023-03-20T11:26:50;4.75;;;2.40;;
38332;SDS011;25748;46.670;14.272;2023-03-20T11:29:28;7.68;;;2.42;;
38332;SDS011;25748;46.670;14.272;2023-03-20T11:32:16;4.50;;;2.53;;
38332;SDS011;25748;46.670;14.272;2023-03-20T11:37:48;6.35;;;2.38;;
38332;SDS011;25748;46.670;14.272;2023-03-20T11:40:20;5.95;;;2.95;;
38332;SDS011;25748;46.670;14.272;2023-03-20T11:42:51;3.83;;;2.40;;
38332;SDS011;25748;46.670;14.272;2023-03-20T11:45:31;7.63;;;2.92;;
38332;SDS011;25748;46.670;14.272;2023-03-20T11:48:00;5.45;;;2.70;;
38332;SDS011;25748;46.670;14.272;2023-03-20T11:50:36;8.63;;;2.53;;
38332;SDS011;25748;46.670;14.272;2023-03-20T11:53:20;6.47;;;2.33;;
38332;SDS011;25748;46.670;14.272;2023-03-20T11:55:57;7.75;;;2.65;;
38332;SDS011;25748;46.670;14.272;2023-03-20T11:58:38;5.05;;;2.67;;
38332;SDS011;25748;46.670;14.272;2023-03-20T12:01:39;5.75;;;2.05;;
38332;SDS011;25748;46.670;14.272;2023-03-20T12:04:33;6.88;;;2.35;;
38332;SDS011;25748;46.670;14.272;2023-03-20T12:09:54;3.67;;;2.33;;
38332;SDS011;25748;46.670;14.272;2023-03-20T12:23:31;9.65;;;3.08;;
38332;SDS011;25748;46.670;14.272;2023-03-20T12:28:37;6.93;;;2.50;;
38332;SDS011;25748;46.670;14.272;2023-03-20T12:34:21;7.65;;;3.13;;
38332;SDS011;25748;46.670;14.272;2023-03-20T12:36:56;7.82;;;3.38;;
38332;SDS011;25748;46.670;14.272;2023-03-20T12:39:22;11.18;;;3.92;;
38332;SDS011;25748;46.670;14.272;2023-03-20T12:44:46;11.32;;;4.15;;
38332;SDS011;25748;46.670;14.272;2023-03-20T13:01:30;7.43;;;3.70;;
38332;SDS011;25748;46.670;14.272;2023-03-20T13:07:01;10.25;;;4.25;;
38332;SDS011;25748;46.670;14.272;2023-03-20T13:15:10;10.73;;;4.20;;
38332;SDS011;25748;46.670;14.272;2023-03-20T13:26:18;10.52;;;4.03;;
38332;SDS011;25748;46.670;14.272;2023-03-20T13:29:41;8.32;;;3.80;;
38332;SDS011;25748;46.670;14.272;2023-03-20T13:34:59;7.72;;;4.47;;
38332;SDS011;25748;46.670;14.272;2023-03-20T13:37:58;7.47;;;3.40;;
38332;SDS011;25748;46.670;14.272;2023-03-20T13:40:28;6.47;;;3.42;;
38332;SDS011;25748;46.670;14.272;2023-03-20T13:45:48;9.93;;;4.10;;
38332;SDS011;25748;46.670;14.272;2023-03-20T13:51:25;8.80;;;3.17;;
38332;SDS011;25748;46.670;14.272;2023-03-20T13:56:56;5.82;;;3.35;;
38332;SDS011;25748;46.670;14.272;2023-03-20T14:05:00;7.05;;;3.85;;
38332;SDS011;25748;46.670;14.272;2023-03-20T14:07:41;8.43;;;3.65;;
38332;SDS011;25748;46.670;14.272;2023-03-20T14:12:53;8.00;;;3.70;;
38332;SDS011;25748;46.670;14.272;2023-03-20T14:15:21;8.20;;;4.00;;
38332;SDS011;25748;46.670;14.272;2023-03-20T14:17:50;7.60;;;3.25;;
38332;SDS011;25748;46.670;14.272;2023-03-20T14:20:31;11.25;;;4.28;;
38332;SDS011;25748;46.670;14.272;2023-03-20T14:22:57;6.63;;;3.78;;
38332;SDS011;25748;46.670;14.272;2023-03-20T14:25:23;7.28;;;3.47;;
38332;SDS011;25748;46.670;14.272;2023-03-20T14:27:59;11.23;;;4.32;;
38332;SDS011;25748;46.670;14.272;2023-03-20T14:32:57;6.28;;;3.78;;
38332;SDS011;25748;46.670;14.272;2023-03-20T14:35:29;10.95;;;4.60;;
38332;SDS011;25748;46.670;14.272;2023-03-20T14:40:35;9.00;;;4.20;;
38332;SDS011;25748;46.670;14.272;2023-03-20T14:43:16;7.75;;;4.15;;
38332;SDS011;25748;46.670;14.272;2023-03-20T14:46:22;9.85;;;3.60;;
38332;SDS011;25748;46.670;14.272;2023-03-20T14:48:51;9.77;;;3.95;;
38332;SDS011;25748;46.670;14.272;2023-03-20T14:54:22;6.50;;;3.85;;
38332;SDS011;25748;46.670;14.272;2023-03-20T14:56:50;6.32;;;3.25;;
38332;SDS011;25748;46.670;14.272;2023-03-20T14:59:18;6.53;;;3.65;;
38332;SDS011;25748;46.670;14.272;2023-03-20T15:01:47;11.77;;;4.15;;
38332;SDS011;25748;46.670;14.272;2023-03-20T15:04:40;5.32;;;3.35;;
38332;SDS011;25748;46.670;14.272;2023-03-20T15:09:42;9.35;;;3.33;;
38332;SDS011;25748;46.670;14.272;2023-03-20T15:12:13;4.82;;;3.08;;
38332;SDS011;25748;46.670;14.272;2023-03-20T15:17:17;9.18;;;3.83;;
38332;SDS011;25748;46.670;14.272;2023-03-20T15:19:46;7.68;;;4.32;;
38332;SDS011;25748;46.670;14.272;2023-03-20T15:22:16;10.32;;;3.95;;
38332;SDS011;25748;46.670;14.272;2023-03-20T15:24:51;5.68;;;3.38;;
38332;SDS011;25748;46.670;14.272;2023-03-20T15:27:21;10.25;;;3.92;;
38332;SDS011;25748;46.670;14.272;2023-03-20T15:29:51;9.38;;;3.75;;
38332;SDS011;25748;46.670;14.272;2023-03-20T15:32:18;9.00;;;4.28;;
38332;SDS011;25748;46.670;14.272;2023-03-20T15:34:45;10.13;;;3.42;;
38332;SDS011;25748;46.670;14.272;2023-03-20T15:37:13;11.88;;;3.75;;
38332;SDS011;25748;46.670;14.272;2023-03-20T15:39:46;8.98;;;3.95;;
38332;SDS011;25748;46.670;14.272;2023-03-20T15:42:20;6.70;;;4.00;;
38332;SDS011;25748;46.670;14.272;2023-03-20T15:44:48;7.78;;;4.35;;
38332;SDS011;25748;46.670;14.272;2023-03-20T15:47:20;9.38;;;3.88;;
38332;SDS011;25748;46.670;14.272;2023-03-20T15:49:48;6.28;;;4.00;;
38332;SDS011;25748;46.670;14.272;2023-03-20T15:52:25;7.75;;;3.45;;
38332;SDS011;25748;46.670;14.272;2023-03-20T15:54:58;7.93;;;3.97;;
38332;SDS011;25748;46.670;14.272;2023-03-20T15:57:38;5.93;;;3.88;;
38332;SDS011;25748;46.670;14.272;2023-03-20T16:00:13;11.93;;;4.57;;
38332;SDS011;25748;46.670;14.272;2023-03-20T16:02:47;7.35;;;4.55;;
38332;SDS011;25748;46.670;14.272;2023-03-20T16:05:14;7.78;;;4.45;;
38332;SDS011;25748;46.670;14.272;2023-03-20T16:07:41;9.43;;;5.60;;
38332;SDS011;25748;46.670;14.272;2023-03-20T16:10:20;10.70;;;4.40;;
38332;SDS011;25748;46.670;14.272;2023-03-20T16:12:55;12.25;;;4.50;;
38332;SDS011;25748;46.670;14.272;2023-03-20T16:15:24;8.80;;;4.38;;
38332;SDS011;25748;46.670;14.272;2023-03-20T16:17:55;9.70;;;4.72;;
38332;SDS011;25748;46.670;14.272;2023-03-20T16:20:23;9.80;;;4.82;;
38332;SDS011;25748;46.670;14.272;2023-03-20T16:22:54;7.30;;;4.00;;
38332;SDS011;25748;46.670;14.272;2023-03-20T16:27:51;11.13;;;4.18;;
38332;SDS011;25748;46.670;14.272;2023-03-20T16:30:21;9.10;;;4.35;;
38332;SDS011;25748;46.670;14.272;2023-03-20T16:32:53;6.20;;;3.65;;
38332;SDS011;25748;46.670;14.272;2023-03-20T16:35:46;9.45;;;4.22;;
38332;SDS011;25748;46.670;14.272;2023-03-20T16:40:41;11.35;;;5.32;;
38332;SDS011;25748;46.670;14.272;2023-03-20T16:43:13;9.93;;;5.55;;
38332;SDS011;25748;46.670;14.272;2023-03-20T16:45:43;8.32;;;4.55;;
38332;SDS011;25748;46.670;14.272;2023-03-20T16:50:37;14.32;;;4.13;;
38332;SDS011;25748;46.670;14.272;2023-03-20T16:53:09;9.65;;;4.05;;
38332;SDS011;25748;46.670;14.272;2023-03-20T16:55:42;10.88;;;3.33;;
38332;SDS011;25748;46.670;14.272;2023-03-20T16:58:13;8.77;;;3.30;;
38332;SDS011;25748;46.670;14.272;2023-03-20T17:00:50;5.40;;;3.05;;
38332;SDS011;25748;46.670;14.272;2023-03-20T17:03:25;5.28;;;3.55;;
38332;SDS011;25748;46.670;14.272;2023-03-20T17:05:58;6.95;;;3.03;;
38332;SDS011;25748;46.670;14.272;2023-03-20T17:08:37;6.45;;;3.33;;
38332;SDS011;25748;46.670;14.272;2023-03-20T17:11:13;9.23;;;3.53;;
38332;SDS011;25748;46.670;14.272;2023-03-20T17:13:45;7.50;;;3.22;;
38332;SDS011;25748;46.670;14.272;2023-03-20T17:16:13;5.78;;;3.33;;
38332;SDS011;25748;46.670;14.272;2023-03-20T17:18:43;5.55;;;2.95;;
38332;SDS011;25748;46.670;14.272;2023-03-20T17:21:10;3.03;;;2.20;;
38332;SDS011;25748;46.670;14.272;2023-03-20T17:23:39;5.68;;;2.30;;
38332;SDS011;25748;46.670;14.272;2023-03-20T17:26:08;8.05;;;2.70;;
38332;SDS011;25748;46.670;14.272;2023-03-20T17:28:36;6.13;;;2.60;;
38332;SDS011;25748;46.670;14.272;2023-03-20T17:31:01;5.28;;;2.35;;
38332;SDS011;25748;46.670;14.272;2023-03-20T17:33:29;7.10;;;2.67;;
38332;SDS011;25748;46.670;14.272;2023-03-20T17:35:57;5.50;;;2.63;;
38332;SDS011;25748;46.670;14.272;2023-03-20T17:38:24;6.57;;;3.35;;
38332;SDS011;25748;46.670;14.272;2023-03-20T17:40:50;5.95;;;3.33;;